createdAt,value
2023-06-19T00:01:38.736Z,21.99
2023-06-19T00:04:05.399Z,21.97
2023-06-19T00:06:31.854Z,21.96
2023-06-19T00:08:58.366Z,21.98
2023-06-19T00:11:24.843Z,21.98
2023-06-19T00:13:51.380Z,21.99
2023-06-19T00:16:19.061Z,21.99
2023-06-19T00:18:46.230Z,21.98
2023-06-19T00:21:12.935Z,21.96
2023-06-19T00:23:39.660Z,21.95
2023-06-19T00:26:08.190Z,21.98
2023-06-19T00:28:39.887Z,21.94
2023-06-19T00:31:09.718Z,21.93
2023-06-19T00:33:36.270Z,21.90
2023-06-19T00:36:02.803Z,21.87
2023-06-19T00:38:29.486Z,21.89
2023-06-19T00:40:57.664Z,21.85
2023-06-19T00:43:24.150Z,21.83
2023-06-19T00:45:50.899Z,21.83
2023-06-19T00:48:18.099Z,21.80
2023-06-19T00:50:45.140Z,21.75
2023-06-19T00:53:11.778Z,21.71
2023-06-19T00:55:38.702Z,21.71
2023-06-19T00:58:05.243Z,21.65
2023-06-19T01:00:31.829Z,21.62
2023-06-19T01:02:59.829Z,21.59
2023-06-19T01:05:28.824Z,21.55
2023-06-19T01:08:09.939Z,21.50
2023-06-19T01:10:41.575Z,21.48
2023-06-19T01:13:13.129Z,21.46
2023-06-19T01:15:42.857Z,21.39
2023-06-19T01:18:12.771Z,21.34
2023-06-19T01:20:39.876Z,21.30
2023-06-19T01:23:09.305Z,21.26
2023-06-19T01:25:36.422Z,21.23
2023-06-19T01:28:10.772Z,21.18
2023-06-19T01:30:39.829Z,21.12
2023-06-19T01:33:16.097Z,21.09
2023-06-19T01:35:45.844Z,21.03
2023-06-19T01:38:13.948Z,21.02
2023-06-19T01:40:41.801Z,20.98
2023-06-19T01:43:09.572Z,20.92
2023-06-19T01:45:36.372Z,20.86
2023-06-19T01:48:03.546Z,20.80
2023-06-19T01:50:30.181Z,20.75
2023-06-19T01:52:56.992Z,20.72
2023-06-19T01:55:23.752Z,20.68
2023-06-19T01:57:50.242Z,20.66
2023-06-19T02:00:17.164Z,20.63
2023-06-19T02:02:43.959Z,20.64
2023-06-19T02:05:10.940Z,20.62
2023-06-19T02:07:38.352Z,20.61
2023-06-19T02:10:06.449Z,20.59
2023-06-19T02:12:33.145Z,20.62
2023-06-19T02:14:59.709Z,20.60
2023-06-19T02:17:26.329Z,20.56
2023-06-19T02:19:52.841Z,20.57
2023-06-19T02:22:19.611Z,20.61
2023-06-19T02:24:46.852Z,20.60
2023-06-19T02:27:13.578Z,20.56
2023-06-19T02:29:40.202Z,20.53
2023-06-19T02:32:06.954Z,20.53
2023-06-19T02:34:34.658Z,20.52
2023-06-19T02:37:01.235Z,20.51
2023-06-19T02:39:28.400Z,20.51
2023-06-19T02:41:54.995Z,20.49
2023-06-19T02:44:21.865Z,20.44
2023-06-19T02:46:49.467Z,20.42
2023-06-19T02:49:16.114Z,20.41
2023-06-19T02:51:43.251Z,20.40
2023-06-19T02:54:09.820Z,20.40
2023-06-19T02:56:36.411Z,20.40
2023-06-19T02:59:02.974Z,20.39
2023-06-19T03:01:29.802Z,20.36
2023-06-19T03:03:56.978Z,20.37
2023-06-19T03:06:23.532Z,20.39
2023-06-19T03:08:50.029Z,20.40
2023-06-19T03:11:16.546Z,20.38
2023-06-19T03:13:52.074Z,20.36
2023-06-19T03:16:20.937Z,20.33
2023-06-19T03:18:51.922Z,20.35
2023-06-19T03:21:21.034Z,20.35
2023-06-19T03:23:49.032Z,20.37
2023-06-19T03:26:16.215Z,20.38
2023-06-19T03:28:43.173Z,20.36
2023-06-19T03:31:10.309Z,20.34
2023-06-19T03:33:36.962Z,20.34
2023-06-19T03:36:05.249Z,20.34
2023-06-19T03:38:51.239Z,20.28
2023-06-19T03:41:21.238Z,20.27
2023-06-19T03:43:47.987Z,20.26
2023-06-19T03:46:15.057Z,20.25
2023-06-19T03:48:41.647Z,20.25
2023-06-19T03:51:08.191Z,20.21
2023-06-19T03:53:35.179Z,20.19
2023-06-19T03:56:01.780Z,20.18
2023-06-19T03:58:28.462Z,20.11
2023-06-19T04:00:54.988Z,20.10
2023-06-19T04:03:21.956Z,20.06
2023-06-19T04:05:48.822Z,20.06
2023-06-19T04:08:16.913Z,20.07
2023-06-19T04:10:44.071Z,20.09
2023-06-19T04:13:10.552Z,20.09
2023-06-19T04:15:39.653Z,20.09
2023-06-19T04:18:06.264Z,20.06
2023-06-19T04:20:33.026Z,20.00
2023-06-19T04:22:59.510Z,20.01
2023-06-19T04:25:26.030Z,20.03
2023-06-19T04:27:52.585Z,20.00
2023-06-19T04:30:22.110Z,19.98
2023-06-19T04:32:48.819Z,20.01
2023-06-19T04:35:15.422Z,20.00
2023-06-19T04:37:41.935Z,19.98
2023-06-19T04:40:09.118Z,19.97
2023-06-19T04:42:35.620Z,19.96
2023-06-19T04:45:02.169Z,19.98
2023-06-19T04:47:39.746Z,19.94
2023-06-19T04:50:16.656Z,19.90
2023-06-19T04:52:43.441Z,19.89
2023-06-19T04:55:11.203Z,19.89
2023-06-19T04:57:38.452Z,19.89
2023-06-19T05:00:11.274Z,19.89
2023-06-19T05:02:38.563Z,19.91
2023-06-19T05:05:05.716Z,19.92
2023-06-19T05:07:32.584Z,19.99
2023-06-19T05:10:00.090Z,20.01
2023-06-19T05:12:26.685Z,20.01
2023-06-19T05:14:53.254Z,19.98
2023-06-19T05:17:19.898Z,20.02
2023-06-19T05:19:46.506Z,20.08
2023-06-19T05:22:13.119Z,20.09
2023-06-19T05:24:40.012Z,20.07
2023-06-19T05:27:06.986Z,20.08
2023-06-19T05:29:33.600Z,20.05
2023-06-19T05:32:00.235Z,19.99
2023-06-19T05:34:26.727Z,19.97
2023-06-19T05:36:53.276Z,19.96
2023-06-19T05:39:21.167Z,19.96
2023-06-19T05:41:47.745Z,19.95
2023-06-19T05:44:18.011Z,19.96
2023-06-19T05:46:44.867Z,20.02
2023-06-19T05:49:11.585Z,19.99
2023-06-19T05:51:38.575Z,20.00
2023-06-19T05:54:05.385Z,19.99
2023-06-19T05:56:34.293Z,19.99
2023-06-19T05:59:02.784Z,20.02
2023-06-19T06:01:30.753Z,20.02
2023-06-19T06:03:58.286Z,20.03
2023-06-19T06:06:26.640Z,19.97
2023-06-19T06:08:53.514Z,19.99
2023-06-19T06:11:20.089Z,20.01
2023-06-19T06:13:46.695Z,20.00
2023-06-19T06:16:13.259Z,20.03
2023-06-19T06:18:39.827Z,20.03
2023-06-19T06:21:06.475Z,20.11
2023-06-19T06:23:33.022Z,20.21
2023-06-19T06:26:03.512Z,20.69
2023-06-19T06:28:30.482Z,20.93
2023-06-19T06:30:57.037Z,20.91
2023-06-19T06:33:24.351Z,20.93
2023-06-19T06:35:52.533Z,21.09
2023-06-19T06:38:19.258Z,21.71
2023-06-19T06:40:45.802Z,21.75
2023-06-19T06:43:12.307Z,21.55
2023-06-19T06:45:39.333Z,21.33
2023-06-19T06:48:08.055Z,21.19
2023-06-19T06:50:35.448Z,21.10
2023-06-19T06:53:02.252Z,20.96
2023-06-19T06:55:29.077Z,20.84
2023-06-19T06:57:55.550Z,20.84
2023-06-19T07:00:22.627Z,20.84
2023-06-19T07:02:51.401Z,20.84
2023-06-19T07:05:18.301Z,20.85
2023-06-19T07:07:44.787Z,20.87
2023-06-19T07:10:11.798Z,20.79
2023-06-19T07:12:51.029Z,20.87
2023-06-19T07:15:54.723Z,21.01
2023-06-19T07:18:21.309Z,21.08
2023-06-19T07:20:47.868Z,21.14
2023-06-19T07:23:15.259Z,21.28
2023-06-19T07:25:41.725Z,21.25
2023-06-19T07:28:08.234Z,21.18
2023-06-19T07:30:34.720Z,21.13
2023-06-19T07:33:01.412Z,21.13
2023-06-19T07:35:27.981Z,21.15
2023-06-19T07:37:54.462Z,21.07
2023-06-19T07:40:21.013Z,21.01
2023-06-19T07:42:47.573Z,21.12
2023-06-19T07:45:14.940Z,21.39
2023-06-19T07:47:41.522Z,21.65
2023-06-19T07:50:09.770Z,21.77
2023-06-19T07:52:36.439Z,21.80
2023-06-19T07:55:03.458Z,21.89
2023-06-19T07:57:30.478Z,22.05
2023-06-19T07:59:57.221Z,22.02
2023-06-19T08:02:24.938Z,22.09
2023-06-19T08:04:51.998Z,22.16
2023-06-19T08:07:18.667Z,22.19
2023-06-19T08:09:47.029Z,22.15
2023-06-19T08:12:15.378Z,22.24
2023-06-19T08:14:41.879Z,22.27
2023-06-19T08:17:08.598Z,22.25
2023-06-19T08:19:35.169Z,22.34
2023-06-19T08:22:01.714Z,22.51
2023-06-19T08:24:28.336Z,22.65
2023-06-19T08:26:55.498Z,22.62
2023-06-19T08:29:22.124Z,22.77
2023-06-19T08:31:48.601Z,22.83
2023-06-19T08:34:15.211Z,22.68
2023-06-19T08:36:42.981Z,22.63
2023-06-19T08:39:09.628Z,22.71
2023-06-19T08:41:42.238Z,22.72
2023-06-19T08:44:09.285Z,22.91
2023-06-19T09:11:10.765Z,23.39
2023-06-19T09:13:38.678Z,23.30
2023-06-19T09:16:07.834Z,23.30
2023-06-19T09:18:46.343Z,23.39
2023-06-19T09:21:17.170Z,23.58
2023-06-19T09:23:43.711Z,23.56
2023-06-19T09:26:10.952Z,23.39
2023-06-19T09:28:42.774Z,23.30
2023-06-19T09:31:09.373Z,23.30
2023-06-19T09:33:39.455Z,23.43
2023-06-19T09:36:07.320Z,23.59
2023-06-19T09:38:39.510Z,23.65
2023-06-19T09:41:09.025Z,23.68
2023-06-19T09:43:42.216Z,23.82
2023-06-19T09:46:09.889Z,24.01
2023-06-19T09:48:44.243Z,24.13
2023-06-19T09:51:17.984Z,24.25
2023-06-19T09:53:51.949Z,24.38
2023-06-19T09:56:25.538Z,24.49
2023-06-19T09:58:56.730Z,24.64
2023-06-19T10:01:24.651Z,24.98
2023-06-19T10:03:52.026Z,25.12
2023-06-19T10:06:23.500Z,25.40
2023-06-19T10:08:52.167Z,25.47
2023-06-19T10:11:18.937Z,25.62
2023-06-19T10:13:47.593Z,25.83
2023-06-19T10:16:27.278Z,26.14
2023-06-19T10:18:59.863Z,26.30
